CST,Max TemperatureF,Mean TemperatureF,Min TemperatureF,Max Dew PointF,MeanDew PointF,Min DewpointF,Max Humidity, Mean Humidity, Min Humidity, Max Sea Level PressureIn, Mean Sea Level PressureIn, Min Sea Level PressureIn, Max VisibilityMiles, Mean VisibilityMiles, Min VisibilityMiles, Max Wind SpeedMPH, Mean Wind SpeedMPH, Max Gust SpeedMPH,PrecipitationIn, CloudCover, Events, WindDirDegrees
2013-11-1,57,47,37,41,38,36,93,80,44,29.98,29.78,29.59,10,10,5,25,11,41,0.05,3,Rain,292
2013-11-2,53,43,33,41,35,32,93,75,47,30.20,30.12,29.98,10,10,9,18,11,23,0.00,2,,291
2013-11-3,55,44,33,37,33,30,93,62,38,30.13,29.97,29.80,10,10,10,29,11,43,0.00,0,,167
2013-11-4,53,42,30,45,38,28,100,73,54,30.18,29.99,29.84,10,10,9,17,12,24,0.00,4,,183
2013-11-5,46,38,30,43,37,28,100,91,76,30.20,30.03,29.86,10,6,0,21,10,28,0.82,7,Rain,30
2013-11-6,41,34,28,34,30,27,100,86,57,30.30,30.20,30.03,10,9,2,23,14,30,0.00,5,,304
2013-11-7,44,34,24,32,26,21,100,79,39,30.39,30.34,30.28,10,10,3,22,6,29,0.06,0,,273
2013-11-8,62,42,23,37,31,21,93,60,32,30.30,29.98,29.76,10,10,10,36,11,46,0.00,0,,205
2013-11-9,57,45,33,36,33,28,87,65,41,30.37,30.14,29.92,10,10,10,23,11,23,0.00,0,,285
2013-11-10,51,37,23,32,27,21,93,63,35,30.45,30.33,30.16,10,10,10,15,6,20,0.00,3,,193
2013-11-11,41,28,14,36,22,9,93,76,64,30.78,30.43,30.13,10,9,1,24,11,32,0.00,2,Rain-Snow,3
2013-11-12,30,18,6,12,8,3,85,66,37,30.89,30.77,30.59,10,10,8,10,6,13,0.00,0,,276
2013-11-13,50,34,17,25,19,10,79,56,37,30.57,30.28,30.04,10,10,10,26,13,33,0.00,0,,197
2013-11-14,51,40,28,32,26,21,93,64,46,30.03,29.96,29.91,10,10,8,15,8,20,0.00,1,,208
2013-11-15,55,38,21,41,31,21,100,75,44,29.93,29.82,29.66,10,10,7,18,4,24,0.00,0,,175
2013-11-16,64,50,37,54,43,32,94,76,40,29.66,29.45,29.31,10,10,9,33,14,45,0.00,3,,196
2013-11-17,51,43,35,45,38,32,93,80,58,30.05,29.65,29.34,10,10,6,17,8,23,0.11,3,Rain,322
2013-11-18,50,39,28,34,30,27,100,76,43,30.27,30.20,30.06,10,10,8,12,6,13,0.00,0,,267
2013-11-19,59,44,30,32,28,25,87,55,31,30.23,30.06,29.93,10,9,2,28,10,36,0.00,3,,168
2013-11-20,50,42,35,36,33,28,93,66,43,29.99,29.90,29.82,10,10,9,24,16,32,0.00,1,,163
2013-11-21,35,28,21,34,26,18,100,91,80,30.54,30.27,29.99,10,6,1,23,10,31,0.03,6,Rain-Snow,352
2013-11-22,26,18,10,18,10,5,86,72,50,30.70,30.62,30.56,10,10,7,22,11,28,0.00,1,Snow,331
2013-11-23,21,12,3,12,3,-2,85,68,49,30.89,30.80,30.64,10,10,10,18,10,24,0.00,0,Snow,357
2013-11-24,26,14,3,16,7,-2,85,69,54,30.77,30.50,30.23,10,10,10,21,8,29,0.00,1,,192
2013-11-25,41,32,24,30,23,14,86,74,61,30.23,30.17,30.12,10,10,10,20,13,25,0.00,3,,253
2013-11-26,30,22,14,23,14,7,93,68,43,30.42,30.32,30.20,10,10,10,29,12,36,0.00,2,,329
2013-11-27,28,17,6,16,10,1,85,67,47,30.42,30.27,30.04,10,10,10,18,8,24,0.00,0,,204
2013-11-28,33,24,14,19,16,10,86,72,48,30.52,30.33,30.04,10,10,9,22,11,26,0.00,0,Snow,338
2013-11-29,42,26,10,28,20,7,92,74,49,30.52,30.37,30.18,10,10,8,17,5,23,0.00,0,,169
2013-11-30,53,38,24,30,26,21,93,72,41,30.18,30.13,30.08,10,10,10,9,5,,0.00,0,,237